Time;durP1;ratioP1;P1;durP2;ratioP2;P2;SDS_P1;SDS_P2;PMS_P1;PMS_P2;Temp;Humidity;BMP_temperature;BMP_pressure;BME280_temperature;BME280_humidity;BME280_pressure;Samples;Min_cycle;Max_cycle;Signal;HPM_P1;HPM_P2
2023/12/13 00:01:26;;;;;;;2.13;1.92;;;7.50;99.90;;;;;;5027129;28;20044;-87
2023/12/13 00:03:52;;;;;;;1.30;1.17;;;7.50;99.90;;;;;;5058554;28;20506;-86
2023/12/13 00:06:18;;;;;;;2.17;1.70;;;7.50;99.90;;;;;;5025335;28;20060;-87
2023/12/13 00:08:43;;;;;;;0.85;0.85;;;7.40;99.90;;;;;;5059463;28;20454;-86
2023/12/13 00:11:09;;;;;;;0.93;0.85;;;7.40;99.90;;;;;;5058682;28;20044;-86
2023/12/13 00:13:35;;;;;;;0.40;0.40;;;7.40;99.90;;;;;;5024020;28;20054;-86
2023/12/13 00:16:01;;;;;;;0.55;0.47;;;7.40;99.90;;;;;;5023074;28;20124;-87
2023/12/13 00:18:28;;;;;;;2.83;0.90;;;7.40;99.90;;;;;;5057659;28;20041;-86
2023/12/13 00:20:53;;;;;;;2.45;1.88;;;7.70;99.90;;;;;;5070795;28;20093;-86
2023/12/13 00:23:19;;;;;;;0.90;0.80;;;7.40;99.90;;;;;;5062950;28;20428;-87
2023/12/13 00:25:44;;;;;;;0.93;0.90;;;7.40;99.90;;;;;;5022903;28;20052;-86
2023/12/13 00:28:10;;;;;;;5.07;1.38;;;7.40;99.90;;;;;;5057015;28;20068;-86
2023/12/13 00:30:36;;;;;;;0.90;0.88;;;7.40;99.90;;;;;;5056960;28;20057;-87
2023/12/13 00:33:02;;;;;;;0.43;0.35;;;7.40;99.90;;;;;;5058005;28;20037;-86
2023/12/13 00:35:27;;;;;;;1.75;1.65;;;7.40;99.90;;;;;;5057793;28;20394;-86
2023/12/13 00:37:56;;;;;;;0.93;0.88;;;8.00;99.90;;;;;;5057748;28;20033;-87
2023/12/13 00:40:22;;;;;;;1.35;0.95;;;7.40;99.90;;;;;;5056829;28;20053;-86
2023/12/13 00:42:48;;;;;;;1.23;1.08;;;7.40;99.90;;;;;;5056943;28;20152;-87
2023/12/13 00:45:14;;;;;;;0.40;0.40;;;7.40;99.90;;;;;;5056577;28;20345;-87
2023/12/13 00:47:40;;;;;;;3.92;1.50;;;7.40;99.90;;;;;;5056173;28;20033;-87
2023/12/13 00:50:07;;;;;;;1.05;1.00;;;7.40;99.90;;;;;;5056493;28;20103;-86
2023/12/13 00:52:33;;;;;;;0.40;0.40;;;7.40;99.90;;;;;;5038938;28;20055;-86
2023/12/13 00:55:00;;;;;;;1.00;0.93;;;7.40;99.90;;;;;;5057040;28;20034;-87
2023/12/13 00:57:27;;;;;;;1.10;0.90;;;7.40;99.90;;;;;;5038953;28;20059;-86
2023/12/13 00:59:52;;;;;;;0.80;0.80;;;7.40;99.90;;;;;;5048974;28;20045;-87
2023/12/13 01:02:18;;;;;;;0.88;0.47;;;7.60;99.90;;;;;;5020910;28;20045;-86
2023/12/13 01:04:44;;;;;;;0.47;0.47;;;7.50;99.90;;;;;;5055598;28;20037;-86
2023/12/13 01:07:10;;;;;;;1.00;0.52;;;7.50;99.90;;;;;;5056128;28;20049;-86
2023/12/13 01:09:36;;;;;;;0.95;0.90;;;7.50;99.90;;;;;;5038249;28;20049;-87
2023/12/13 01:12:02;;;;;;;2.05;1.55;;;7.50;99.90;;;;;;5043099;28;20434;-86
2023/12/13 01:14:28;;;;;;;1.15;0.82;;;7.50;99.90;;;;;;5057693;28;20045;-87
2023/12/13 01:16:53;;;;;;;1.52;1.33;;;7.50;99.90;;;;;;5058390;28;20105;-87
2023/12/13 01:19:19;;;;;;;2.83;0.93;;;8.40;99.90;;;;;;5077027;28;20414;-86
2023/12/13 01:21:44;;;;;;;2.83;1.40;;;7.40;99.90;;;;;;5057226;28;20387;-87
2023/12/13 01:24:10;;;;;;;2.47;1.75;;;7.40;99.90;;;;;;5057052;28;20041;-86
2023/12/13 01:26:35;;;;;;;2.72;1.30;;;7.40;99.90;;;;;;5057826;28;20117;-87
2023/12/13 01:29:01;;;;;;;0.90;0.90;;;7.40;99.90;;;;;;5056834;28;20045;-86
2023/12/13 01:31:27;;;;;;;1.15;0.98;;;7.40;99.90;;;;;;5043678;28;20047;-87
2023/12/13 01:33:52;;;;;;;3.17;2.47;;;7.40;99.90;;;;;;5054596;28;20048;-87
2023/12/13 01:36:18;;;;;;;0.73;0.40;;;7.50;99.90;;;;;;5047066;28;20040;-87
2023/12/13 01:38:43;;;;;;;2.55;1.52;;;7.50;99.90;;;;;;5036778;28;20459;-87
2023/12/13 01:41:09;;;;;;;0.82;0.75;;;7.50;99.90;;;;;;5033405;28;20048;-87
2023/12/13 01:43:34;;;;;;;3.35;1.75;;;7.40;99.90;;;;;;5038424;28;20037;-87
2023/12/13 01:46:00;;;;;;;0.73;0.73;;;7.40;99.90;;;;;;5056324;28;20053;-87
2023/12/13 01:48:28;;;;;;;1.77;1.25;;;7.40;99.90;;;;;;5056631;28;20037;-87
2023/12/13 01:50:55;;;;;;;1.45;1.33;;;7.40;99.90;;;;;;5056789;28;20040;-87
2023/12/13 01:53:23;;;;;;;1.27;1.17;;;7.90;99.90;;;;;;5056603;28;20049;-87
2023/12/13 01:55:51;;;;;;;3.42;2.05;;;7.30;99.90;;;;;;5022539;28;20060;-87
2023/12/13 01:58:18;;;;;;;0.65;0.65;;;7.30;99.90;;;;;;5056077;28;20101;-86
2023/12/13 02:00:45;;;;;;;1.85;1.58;;;7.30;99.90;;;;;;5051588;28;20072;-87
2023/12/13 02:03:11;;;;;;;3.40;1.98;;;7.30;99.90;;;;;;5037382;28;20049;-86
2023/12/13 02:05:38;;;;;;;1.45;1.08;;;7.40;99.90;;;;;;5055408;28;20064;-87
2023/12/13 02:08:04;;;;;;;1.85;1.48;;;7.40;99.90;;;;;;5056611;28;20071;-87
2023/12/13 02:10:30;;;;;;;8.25;2.83;;;7.50;99.90;;;;;;5055851;28;20093;-87
2023/12/13 02:12:56;;;;;;;3.47;1.63;;;8.30;99.90;;;;;;5056723;28;20075;-87
2023/12/13 02:15:22;;;;;;;4.40;1.85;;;7.60;99.90;;;;;;5047538;28;20471;-87
2023/12/13 02:17:54;;;;;;;0.68;0.68;;;7.60;99.90;;;;;;5053331;28;20056;-87
2023/12/13 02:20:20;;;;;;;0.93;0.88;;;7.60;99.90;;;;;;5048271;28;20140;-87
2023/12/13 02:22:46;;;;;;;1.27;1.17;;;7.60;99.90;;;;;;5037297;28;20047;-87
2023/12/13 02:25:16;;;;;;;1.80;1.42;;;7.60;99.90;;;;;;5056281;28;20096;-87
2023/12/13 02:27:42;;;;;;;0.43;0.43;;;7.60;99.90;;;;;;5057139;28;20084;-87
2023/12/13 02:30:09;;;;;;;0.47;0.47;;;7.60;99.90;;;;;;5041748;28;20072;-87
2023/12/13 02:32:36;;;;;;;0.90;0.88;;;7.70;99.90;;;;;;5079158;28;20052;-86
2023/12/13 02:35:02;;;;;;;2.60;2.08;;;7.60;99.90;;;;;;5059994;28;20049;-87
2023/12/13 02:37:28;;;;;;;2.20;2.00;;;7.70;99.90;;;;;;5058456;28;20513;-87
2023/12/13 02:39:55;;;;;;;1.13;0.82;;;7.60;99.90;;;;;;5039937;28;20049;-87
2023/12/13 02:42:21;;;;;;;2.88;1.80;;;7.70;99.90;;;;;;5040253;28;20052;-86
2023/12/13 02:44:46;;;;;;;1.67;1.40;;;7.60;99.90;;;;;;5058662;28;20041;-88
2023/12/13 02:47:12;;;;;;;1.95;1.83;;;7.70;99.90;;;;;;5040774;28;20454;-86
2023/12/13 02:49:37;;;;;;;3.05;2.00;;;7.60;99.90;;;;;;5044729;28;20047;-86
2023/12/13 02:52:04;;;;;;;1.90;1.73;;;7.60;99.90;;;;;;5058100;28;20516;-86
2023/12/13 02:54:30;;;;;;;2.45;1.85;;;7.60;99.90;;;;;;5058478;28;20045;-87
2023/12/13 02:56:56;;;;;;;1.52;1.27;;;7.60;99.90;;;;;;5058000;28;20047;-86
2023/12/13 02:59:21;;;;;;;5.57;1.02;;;7.60;99.90;;;;;;5066080;28;20079;-86
2023/12/13 03:01:47;;;;;;;1.17;1.00;;;7.60;99.90;;;;;;5057197;28;20084;-86
2023/12/13 03:04:12;;;;;;;1.75;1.00;;;7.60;99.90;;;;;;5039945;28;20562;-86
2023/12/13 03:06:38;;;;;;;5.28;2.58;;;7.50;99.90;;;;;;5043272;28;20398;-87
2023/12/13 03:09:04;;;;;;;2.17;1.48;;;7.50;99.90;;;;;;5041068;28;20044;-86
2023/12/13 03:11:30;;;;;;;1.45;1.35;;;7.50;99.90;;;;;;5058611;28;20524;-86
2023/12/13 03:13:56;;;;;;;0.52;0.52;;;7.50;99.90;;;;;;5059426;28;20438;-86
2023/12/13 03:16:21;;;;;;;3.53;1.38;;;7.50;99.90;;;;;;5040653;28;20045;-86
2023/12/13 03:18:47;;;;;;;1.10;0.68;;;7.40;99.90;;;;;;5046613;28;20056;-87
2023/12/13 03:21:12;;;;;;;0.75;0.70;;;7.50;99.90;;;;;;5059322;28;20041;-86
2023/12/13 03:23:38;;;;;;;1.55;1.23;;;7.50;99.90;;;;;;5059455;28;20046;-86
2023/12/13 03:26:04;;;;;;;1.30;0.77;;;7.50;99.90;;;;;;5040883;28;20040;-86
2023/12/13 03:28:30;;;;;;;1.85;1.60;;;7.50;99.90;;;;;;5023933;28;20084;-86
2023/12/13 03:30:55;;;;;;;2.28;1.27;;;7.50;99.90;;;;;;5067341;28;20047;-87
2023/12/13 03:33:21;;;;;;;0.82;0.82;;;7.50;99.90;;;;;;5060636;28;20036;-86
2023/12/13 03:35:46;;;;;;;3.58;2.42;;;7.50;99.90;;;;;;5059304;28;20124;-86
2023/12/13 03:38:12;;;;;;;0.75;0.75;;;7.50;99.90;;;;;;5058302;28;20037;-87
2023/12/13 03:40:37;;;;;;;0.30;0.30;;;7.50;99.90;;;;;;5040849;28;20548;-86
2023/12/13 03:43:03;;;;;;;2.30;1.52;;;8.30;99.90;;;;;;5041463;28;20041;-87
2023/12/13 03:45:29;;;;;;;4.60;2.85;;;7.50;99.90;;;;;;5040827;28;20087;-86
2023/12/13 03:47:55;;;;;;;1.65;1.50;;;7.50;99.90;;;;;;5040670;28;20056;-86
2023/12/13 03:50:20;;;;;;;0.35;0.35;;;7.50;99.90;;;;;;5024508;28;20040;-86
2023/12/13 03:52:46;;;;;;;1.52;1.42;;;7.50;99.90;;;;;;5057971;28;20043;-86
2023/12/13 03:55:12;;;;;;;6.53;2.90;;;7.50;99.90;;;;;;5057583;28;20052;-86
2023/12/13 03:57:39;;;;;;;2.47;2.28;;;7.50;99.90;;;;;;5040205;28;20116;-86
2023/12/13 04:00:06;;;;;;;0.98;0.93;;;7.50;99.90;;;;;;5047481;28;20049;-87
2023/12/13 04:02:32;;;;;;;1.10;1.08;;;7.60;99.90;;;;;;5025967;28;20052;-87
2023/12/13 04:04:57;;;;;;;2.33;1.50;;;7.60;99.90;;;;;;5059462;28;20037;-87
2023/12/13 04:07:23;;;;;;;1.85;1.48;;;7.60;99.90;;;;;;5041748;28;20090;-87
2023/12/13 04:09:48;;;;;;;6.32;3.05;;;7.60;99.90;;;;;;5069907;28;20083;-87
2023/12/13 04:12:15;;;;;;;2.90;2.42;;;7.70;99.90;;;;;;5059283;28;20457;-87
2023/12/13 04:14:41;;;;;;;3.65;1.42;;;7.60;99.90;;;;;;5040724;28;20053;-86
2023/12/13 04:17:07;;;;;;;0.63;0.45;;;7.60;99.90;;;;;;5040686;28;20509;-86
2023/12/13 04:19:33;;;;;;;13.15;2.85;;;7.60;99.90;;;;;;5062923;28;20037;-87
2023/12/13 04:21:58;;;;;;;1.75;1.30;;;7.70;99.90;;;;;;5044461;28;20056;-87
2023/12/13 04:24:24;;;;;;;0.98;0.90;;;7.70;99.90;;;;;;5041417;28;20040;-87
2023/12/13 04:26:49;;;;;;;0.88;0.80;;;7.70;99.90;;;;;;5041690;28;20048;-87
2023/12/13 04:29:15;;;;;;;1.02;0.80;;;7.70;99.90;;;;;;5047816;28;20056;-86
2023/12/13 04:31:42;;;;;;;1.63;0.95;;;7.60;99.90;;;;;;5032556;28;20037;-86
2023/12/13 04:34:07;;;;;;;1.23;1.13;;;7.70;99.90;;;;;;5063493;28;20429;-86
2023/12/13 04:36:33;;;;;;;1.23;1.13;;;7.70;99.90;;;;;;5057710;28;20098;-86
2023/12/13 04:38:59;;;;;;;4.65;1.58;;;7.70;99.90;;;;;;5057532;28;20040;-86
2023/12/13 04:41:25;;;;;;;0.98;0.88;;;7.60;99.90;;;;;;5039176;28;20122;-86
2023/12/13 04:43:50;;;;;;;0.88;0.85;;;7.70;99.90;;;;;;5057047;28;20511;-86
2023/12/13 04:46:16;;;;;;;2.03;1.85;;;7.70;99.90;;;;;;5023272;28;20044;-87
2023/12/13 04:48:42;;;;;;;1.75;1.65;;;7.70;99.90;;;;;;5067180;28;20036;-87
2023/12/13 04:51:07;;;;;;;0.82;0.77;;;7.70;99.90;;;;;;5023852;28;20047;-87
2023/12/13 04:53:33;;;;;;;0.35;0.35;;;7.70;99.90;;;;;;5059034;28;20055;-87
2023/12/13 04:55:58;;;;;;;1.17;1.00;;;7.70;99.90;;;;;;5040834;28;20037;-87
2023/12/13 04:58:24;;;;;;;0.30;0.30;;;7.70;99.90;;;;;;5058877;28;20051;-87
2023/12/13 05:00:50;;;;;;;5.50;0.90;;;7.70;99.90;;;;;;5069941;28;20100;-86
2023/12/13 05:03:15;;;;;;;0.45;0.30;;;7.70;99.90;;;;;;5057769;28;20147;-86
2023/12/13 05:05:41;;;;;;;2.45;1.55;;;7.70;99.90;;;;;;5057275;28;20056;-87
2023/12/13 05:08:12;;;;;;;0.82;0.82;;;7.70;99.90;;;;;;5056682;28;20047;-87
2023/12/13 05:10:40;;;;;;;0.57;0.57;;;8.70;99.90;;;;;;5042842;28;20049;-87
2023/12/13 05:13:07;;;;;;;1.88;1.75;;;8.80;99.90;;;;;;5057675;28;20041;-86
2023/12/13 05:15:32;;;;;;;0.93;0.88;;;8.40;99.90;;;;;;5057015;28;20052;-87
2023/12/13 05:17:58;;;;;;;1.60;1.13;;;7.70;99.90;;;;;;5057629;28;20041;-87
2023/12/13 05:20:24;;;;;;;4.55;1.33;;;7.70;99.90;;;;;;5068034;28;20045;-87
2023/12/13 05:22:49;;;;;;;0.93;0.45;;;7.70;99.90;;;;;;5054211;28;20037;-86
2023/12/13 05:25:15;;;;;;;0.60;0.60;;;7.70;99.90;;;;;;5056653;28;20049;-86
2023/12/13 05:27:42;;;;;;;1.27;1.17;;;7.70;99.90;;;;;;5056411;28;20033;-87
2023/12/13 05:30:08;;;;;;;0.82;0.57;;;7.70;99.90;;;;;;5056219;28;20052;-87
2023/12/13 05:32:34;;;;;;;2.70;1.33;;;7.70;99.90;;;;;;5056184;28;20406;-87
2023/12/13 05:35:00;;;;;;;1.90;1.17;;;7.70;99.90;;;;;;5055964;28;20479;-87
2023/12/13 05:37:25;;;;;;;1.30;1.20;;;7.70;99.90;;;;;;5058303;28;20046;-87
2023/12/13 05:39:51;;;;;;;1.70;1.40;;;7.70;99.90;;;;;;5036230;28;20049;-87
2023/12/13 05:42:17;;;;;;;1.48;0.70;;;7.60;99.90;;;;;;5044159;28;20048;-87
2023/12/13 05:44:42;;;;;;;0.85;0.77;;;7.60;99.90;;;;;;5038793;28;20041;-87
2023/12/13 05:47:08;;;;;;;2.50;1.05;;;8.20;99.90;;;;;;5053979;28;20048;-87
2023/12/13 05:49:33;;;;;;;0.57;0.40;;;7.60;99.90;;;;;;5053724;28;20033;-87
2023/12/13 05:51:59;;;;;;;1.45;1.35;;;7.60;99.90;;;;;;5038127;28;20479;-87
2023/12/13 05:54:24;;;;;;;1.83;0.95;;;7.60;99.90;;;;;;5055976;28;20044;-87
2023/12/13 05:56:50;;;;;;;0.70;0.68;;;7.60;99.90;;;;;;5037883;28;20041;-87
2023/12/13 05:59:16;;;;;;;1.70;1.60;;;7.60;99.90;;;;;;5038353;28;20055;-87
2023/12/13 06:01:41;;;;;;;1.88;1.20;;;7.60;99.90;;;;;;5058417;28;20040;-88
2023/12/13 06:04:07;;;;;;;1.05;0.90;;;7.60;99.90;;;;;;5079200;28;20082;-87
2023/12/13 06:06:32;;;;;;;0.68;0.60;;;7.60;99.90;;;;;;5059747;28;20071;-87
2023/12/13 06:08:58;;;;;;;1.35;0.93;;;7.60;99.90;;;;;;5046188;28;20049;-88
2023/12/13 06:11:24;;;;;;;0.20;0.20;;;7.60;99.90;;;;;;5063330;28;20066;-87
2023/12/13 06:13:49;;;;;;;0.30;0.30;;;7.60;99.90;;;;;;5060198;28;20790;-87
2023/12/13 06:16:15;;;;;;;0.43;0.43;;;7.60;99.90;;;;;;5059586;28;20136;-87
2023/12/13 06:18:40;;;;;;;1.25;0.80;;;7.60;99.90;;;;;;5059615;28;20041;-87
2023/12/13 06:21:07;;;;;;;1.08;0.95;;;7.60;99.90;;;;;;5066199;28;20440;-87
2023/12/13 06:23:33;;;;;;;0.30;0.30;;;7.50;99.90;;;;;;5049458;28;20041;-87
2023/12/13 06:25:59;;;;;;;0.20;0.20;;;7.50;99.90;;;;;;5061427;28;20036;-88
2023/12/13 06:28:24;;;;;;;2.65;1.33;;;7.50;99.90;;;;;;5055188;28;20037;-87
2023/12/13 06:30:50;;;;;;;0.35;0.35;;;7.50;99.90;;;;;;5048209;28;20037;-87
2023/12/13 06:33:18;;;;;;;0.28;0.28;;;7.50;99.90;;;;;;5072792;28;20040;-87
2023/12/13 06:35:44;;;;;;;1.00;0.98;;;7.50;99.90;;;;;;5050539;28;20063;-87
2023/12/13 06:38:10;;;;;;;0.35;0.35;;;7.50;99.90;;;;;;5053093;28;20041;-87
2023/12/13 06:40:35;;;;;;;1.02;0.93;;;7.50;99.90;;;;;;5076985;28;20048;-87
2023/12/13 06:43:01;;;;;;;1.10;1.00;;;7.50;99.90;;;;;;5078517;28;20045;-88
2023/12/13 06:45:27;;;;;;;0.20;0.17;;;8.50;99.90;;;;;;5062879;28;20036;-88
2023/12/13 06:47:52;;;;;;;0.70;0.43;;;7.50;99.90;;;;;;5047796;28;20603;-88
2023/12/13 06:50:19;;;;;;;2.17;1.52;;;7.50;99.90;;;;;;5071983;28;20430;-88
2023/12/13 06:52:47;;;;;;;0.52;0.52;;;7.60;99.90;;;;;;5023994;28;20376;-87
2023/12/13 06:55:13;;;;;;;3.13;1.98;;;7.50;99.90;;;;;;5058408;28;20091;-88
2023/12/13 06:57:38;;;;;;;0.68;0.68;;;7.50;99.90;;;;;;5039263;28;20073;-88
2023/12/13 07:00:05;;;;;;;2.25;1.63;;;7.60;99.90;;;;;;5053680;28;20095;-88
2023/12/13 07:02:31;;;;;;;1.38;1.23;;;7.50;99.90;;;;;;5053588;28;20114;-88
2023/12/13 07:04:57;;;;;;;0.80;0.80;;;7.50;99.90;;;;;;5034658;28;20138;-87
2023/12/13 07:07:22;;;;;;;0.75;0.75;;;7.60;99.90;;;;;;5053979;28;20048;-87
2023/12/13 07:09:48;;;;;;;1.88;1.45;;;7.60;99.90;;;;;;5035464;28;20045;-88
2023/12/13 07:12:14;;;;;;;2.58;1.38;;;7.60;99.90;;;;;;5052851;28;20053;-88
2023/12/13 07:14:39;;;;;;;2.40;2.20;;;8.60;99.90;;;;;;5033376;28;20148;-88
2023/12/13 07:17:05;;;;;;;1.02;1.00;;;7.60;99.90;;;;;;5042624;28;20048;-87
2023/12/13 07:19:30;;;;;;;1.25;1.15;;;7.60;99.90;;;;;;5039956;28;20045;-87
2023/12/13 07:21:56;;;;;;;1.88;1.75;;;7.60;99.90;;;;;;5020500;28;20110;-86
2023/12/13 07:24:21;;;;;;;1.40;1.15;;;7.60;99.90;;;;;;5052350;28;20124;-87
2023/12/13 07:26:47;;;;;;;0.93;0.93;;;7.60;99.90;;;;;;5053274;28;20056;-87
2023/12/13 07:29:13;;;;;;;0.75;0.75;;;7.70;99.90;;;;;;5052452;28;20080;-87
2023/12/13 07:31:41;;;;;;;0.65;0.65;;;7.60;99.90;;;;;;5034176;28;20037;-87
2023/12/13 07:34:10;;;;;;;2.50;1.83;;;7.60;99.90;;;;;;5052567;28;20059;-87
2023/12/13 07:36:36;;;;;;;1.65;1.55;;;7.60;99.90;;;;;;5034408;28;20493;-87
2023/12/13 07:39:03;;;;;;;1.23;1.08;;;7.60;99.90;;;;;;5052227;28;20462;-87
2023/12/13 07:41:29;;;;;;;1.13;0.95;;;7.60;99.90;;;;;;5052335;28;20679;-87
2023/12/13 07:43:54;;;;;;;0.63;0.63;;;7.60;99.90;;;;;;5051795;28;20407;-86
2023/12/13 07:46:20;;;;;;;2.60;1.05;;;7.60;99.90;;;;;;5051951;28;20048;-87
2023/12/13 07:48:46;;;;;;;0.75;0.55;;;7.60;99.90;;;;;;5034178;28;20425;-87
2023/12/13 07:51:12;;;;;;;1.35;0.88;;;7.60;99.90;;;;;;5052229;28;20049;-87
2023/12/13 07:53:38;;;;;;;0.82;0.80;;;7.60;99.90;;;;;;5034123;28;20045;-87
2023/12/13 07:56:06;;;;;;;1.30;1.20;;;7.60;99.90;;;;;;5033754;28;20052;-87
2023/12/13 07:58:31;;;;;;;0.17;0.17;;;7.60;99.90;;;;;;5051997;28;20098;-87
2023/12/13 08:00:57;;;;;;;1.92;1.40;;;8.30;99.90;;;;;;5054137;28;20085;-87
2023/12/13 08:03:23;;;;;;;1.67;1.45;;;7.60;99.90;;;;;;5052055;28;20076;-87
2023/12/13 08:05:48;;;;;;;1.65;1.33;;;7.60;99.90;;;;;;5053941;28;20398;-86
2023/12/13 08:08:15;;;;;;;1.25;1.15;;;7.70;99.90;;;;;;5051307;28;20041;-87
2023/12/13 08:10:43;;;;;;;0.03;0.03;;;7.70;99.90;;;;;;5052386;28;20044;-87
2023/12/13 08:13:09;;;;;;;1.08;0.98;;;7.70;99.90;;;;;;5062578;28;20076;-87
2023/12/13 08:15:35;;;;;;;0.32;0.32;;;7.70;99.90;;;;;;5056472;28;20491;-86
2023/12/13 08:18:01;;;;;;;1.15;0.77;;;7.70;99.90;;;;;;5059819;28;20056;-87
2023/12/13 08:20:29;;;;;;;0.70;0.70;;;7.70;99.90;;;;;;5037565;28;20037;-88
2023/12/13 08:22:58;;;;;;;0.00;0.00;;;7.70;99.90;;;;;;5071580;28;20056;-88
2023/12/13 08:25:24;;;;;;;1.75;1.10;;;7.70;99.90;;;;;;5053040;28;20048;-87
2023/12/13 08:27:49;;;;;;;2.78;1.08;;;7.80;99.90;;;;;;5054113;28;20552;-87
2023/12/13 08:30:15;;;;;;;0.57;0.45;;;7.80;99.90;;;;;;5056194;28;20132;-87
2023/12/13 08:32:40;;;;;;;0.85;0.60;;;7.80;99.90;;;;;;5051876;28;20045;-87
2023/12/13 08:35:06;;;;;;;0.90;0.55;;;7.80;99.90;;;;;;5056555;28;20071;-87
2023/12/13 08:37:32;;;;;;;1.50;1.40;;;7.80;99.90;;;;;;5051603;28;20045;-87
2023/12/13 08:39:57;;;;;;;1.00;0.95;;;7.80;99.90;;;;;;5017850;28;20051;-87
2023/12/13 08:42:23;;;;;;;2.95;2.15;;;7.80;99.90;;;;;;5033511;28;20033;-87
2023/12/13 08:44:49;;;;;;;0.60;0.55;;;7.80;99.90;;;;;;5051302;28;20045;-87
2023/12/13 08:47:14;;;;;;;2.28;1.65;;;7.80;99.90;;;;;;5033424;28;20037;-88
2023/12/13 08:49:40;;;;;;;0.60;0.25;;;7.90;99.90;;;;;;5053469;28;20041;-88
2023/12/13 08:52:06;;;;;;;4.22;2.10;;;8.90;99.90;;;;;;5033102;28;20045;-87
2023/12/13 08:54:33;;;;;;;0.70;0.68;;;7.90;99.90;;;;;;5051403;28;20044;-87
2023/12/13 08:56:59;;;;;;;2.10;1.88;;;7.90;99.90;;;;;;5018547;28;20091;-87
2023/12/13 08:59:24;;;;;;;1.85;0.98;;;7.90;99.90;;;;;;5039610;28;20132;-87
2023/12/13 09:01:50;;;;;;;2.13;1.20;;;9.30;99.90;;;;;;5051005;28;20088;-87
2023/12/13 09:04:15;;;;;;;0.52;0.52;;;8.00;99.90;;;;;;5033011;28;20045;-87
2023/12/13 09:06:41;;;;;;;0.85;0.85;;;8.00;99.90;;;;;;5054344;28;20182;-87
2023/12/13 09:09:11;;;;;;;1.23;0.75;;;8.00;99.90;;;;;;5051366;28;20049;-87
2023/12/13 09:11:37;;;;;;;0.30;0.30;;;8.10;99.90;;;;;;5051090;28;20051;-86
2023/12/13 09:14:02;;;;;;;1.55;0.75;;;8.10;99.90;;;;;;5051111;28;20037;-87
2023/12/13 09:16:28;;;;;;;1.20;1.10;;;8.20;99.90;;;;;;5032826;28;20049;-87
2023/12/13 09:18:54;;;;;;;1.48;1.35;;;8.10;99.90;;;;;;5050969;28;20048;-87
2023/12/13 09:21:19;;;;;;;0.90;0.85;;;8.90;99.90;;;;;;5050269;28;20487;-87
2023/12/13 09:23:45;;;;;;;1.33;1.23;;;8.20;99.90;;;;;;5051130;28;20296;-87
2023/12/13 09:26:13;;;;;;;0.70;0.70;;;8.20;99.90;;;;;;5033121;28;20536;-87
2023/12/13 09:28:39;;;;;;;1.65;1.13;;;8.20;99.90;;;;;;5050671;28;20072;-87
2023/12/13 09:31:07;;;;;;;0.90;0.82;;;8.30;99.90;;;;;;5055201;28;20084;-87
2023/12/13 09:33:33;;;;;;;1.45;1.13;;;8.30;99.90;;;;;;5069442;28;20074;-87
2023/12/13 09:35:59;;;;;;;1.02;0.90;;;9.50;99.90;;;;;;5050102;28;20479;-87
2023/12/13 09:38:24;;;;;;;0.75;0.65;;;9.00;99.90;;;;;;5044270;28;20041;-88
2023/12/13 09:40:51;;;;;;;2.45;0.80;;;8.30;99.90;;;;;;5071255;28;20555;-87
2023/12/13 09:43:17;;;;;;;1.20;1.02;;;8.30;99.90;;;;;;5071680;28;20044;-87
2023/12/13 09:45:44;;;;;;;1.98;1.42;;;8.70;99.90;;;;;;5070304;28;20044;-87
2023/12/13 09:48:12;;;;;;;1.45;1.05;;;8.30;99.90;;;;;;5050604;28;20103;-87
2023/12/13 09:50:39;;;;;;;0.17;0.17;;;8.30;99.90;;;;;;5032287;28;20383;-87
2023/12/13 09:53:06;;;;;;;3.53;3.08;;;8.30;99.90;;;;;;5059473;28;20044;-86
2023/12/13 09:55:32;;;;;;;2.45;2.05;;;8.20;99.90;;;;;;5016458;28;20041;-87
2023/12/13 09:57:58;;;;;;;2.50;2.30;;;8.30;99.90;;;;;;5050691;28;20507;-86
2023/12/13 10:00:23;;;;;;;4.38;1.48;;;8.20;99.90;;;;;;5050618;28;20045;-86
2023/12/13 10:02:49;;;;;;;0.60;0.60;;;8.30;99.90;;;;;;5050695;28;20578;-86
2023/12/13 10:05:17;;;;;;;0.85;0.80;;;8.30;99.90;;;;;;5049953;28;20049;-86
2023/12/13 10:07:43;;;;;;;0.38;0.38;;;8.30;99.90;;;;;;5033136;28;20037;-86
2023/12/13 10:10:09;;;;;;;4.28;1.58;;;8.40;99.90;;;;;;5032579;28;20075;-86
2023/12/13 10:12:35;;;;;;;1.17;0.95;;;8.40;99.90;;;;;;5051699;28;20033;-86
2023/12/13 10:15:11;;;;;;;1.65;1.00;;;8.30;99.90;;;;;;5064387;28;20055;-86
2023/12/13 10:17:38;;;;;;;1.27;0.93;;;8.40;99.90;;;;;;5050214;28;20490;-86
2023/12/13 10:20:06;;;;;;;10.18;0.80;;;8.40;99.90;;;;;;5032273;28;20033;-86
2023/12/13 10:22:32;;;;;;;3.75;1.95;;;8.40;99.90;;;;;;5052888;28;20061;-87
2023/12/13 10:24:58;;;;;;;1.48;1.38;;;8.40;99.90;;;;;;5052806;28;20044;-86
2023/12/13 10:27:24;;;;;;;0.98;0.85;;;8.50;99.90;;;;;;5053133;28;20051;-86
2023/12/13 10:29:51;;;;;;;2.65;2.00;;;8.60;99.90;;;;;;5051747;28;20053;-87
2023/12/13 10:32:18;;;;;;;3.83;2.08;;;9.30;99.90;;;;;;5051392;28;20045;-87
2023/12/13 10:34:44;;;;;;;1.05;0.90;;;8.80;99.90;;;;;;5051373;28;20597;-87
2023/12/13 10:37:12;;;;;;;2.22;1.85;;;8.90;99.90;;;;;;5051521;28;20080;-87
2023/12/13 10:39:44;;;;;;;0.73;0.73;;;8.90;99.90;;;;;;5051741;28;20671;-87
2023/12/13 10:42:15;;;;;;;0.73;0.63;;;9.00;99.90;;;;;;5051862;28;20123;-87
2023/12/13 10:44:41;;;;;;;2.30;2.03;;;9.10;99.90;;;;;;5051954;28;20406;-87
2023/12/13 10:47:08;;;;;;;13.82;2.13;;;9.20;99.90;;;;;;5051983;28;20049;-87
2023/12/13 10:49:35;;;;;;;2.35;2.15;;;9.10;99.90;;;;;;5054740;28;20049;-87
2023/12/13 10:52:04;;;;;;;2.28;2.05;;;8.80;99.90;;;;;;5056031;28;20041;-87
2023/12/13 10:54:30;;;;;;;1.48;1.38;;;8.80;99.90;;;;;;5056320;28;20063;-87
2023/12/13 10:56:56;;;;;;;1.65;0.95;;;9.40;99.90;;;;;;5037725;28;20041;-87
2023/12/13 10:59:25;;;;;;;0.57;0.57;;;8.90;99.90;;;;;;5055720;28;20040;-87
2023/12/13 11:01:52;;;;;;;1.45;1.15;;;8.00;99.90;;;;;;5055937;28;20101;-87
2023/12/13 11:04:18;;;;;;;6.68;2.70;;;8.90;99.90;;;;;;5055146;28;20073;-88
2023/12/13 11:06:48;;;;;;;2.63;1.23;;;8.80;99.90;;;;;;5036834;28;20490;-86
2023/12/13 11:09:17;;;;;;;2.72;1.13;;;8.70;99.90;;;;;;5037598;28;20039;-87
2023/12/13 11:11:43;;;;;;;1.40;1.30;;;8.60;99.90;;;;;;5056195;28;20080;-87
2023/12/13 11:14:15;;;;;;;1.85;1.45;;;8.50;99.90;;;;;;5038010;28;20414;-86
2023/12/13 11:16:49;;;;;;;1.00;0.95;;;8.50;99.90;;;;;;5055291;28;20514;-86
2023/12/13 11:19:19;;;;;;;3.65;1.75;;;8.50;99.90;;;;;;5045738;28;20048;-86
2023/12/13 11:21:46;;;;;;;3.35;1.42;;;8.50;99.90;;;;;;5053865;28;20110;-87
2023/12/13 11:24:23;;;;;;;9.32;2.50;;;8.50;99.90;;;;;;5036506;28;20077;-88
2023/12/13 11:26:51;;;;;;;12.88;2.22;;;8.60;99.90;;;;;;5036427;28;20045;-88
2023/12/13 11:29:25;;;;;;;2.20;1.30;;;9.30;99.90;;;;;;5053843;28;20049;-87
2023/12/13 11:31:59;;;;;;;2.90;1.25;;;8.50;99.90;;;;;;5054139;28;20052;-87
2023/12/13 11:34:42;;;;;;;0.60;0.60;;;8.50;99.90;;;;;;5019656;28;20056;-88
2023/12/13 11:37:09;;;;;;;1.05;0.93;;;8.50;99.90;;;;;;5035700;28;20049;-87
2023/12/13 11:39:36;;;;;;;7.10;1.55;;;8.60;99.90;;;;;;5019237;28;20148;-88
2023/12/13 11:42:04;;;;;;;1.17;0.95;;;8.60;99.90;;;;;;5035423;28;20123;-87
2023/12/13 11:44:30;;;;;;;1.52;1.20;;;8.60;99.90;;;;;;5018841;28;20052;-87
2023/12/13 11:46:58;;;;;;;1.27;1.17;;;8.70;99.90;;;;;;5053445;28;20072;-87
2023/12/13 11:49:25;;;;;;;1.30;1.20;;;8.70;99.90;;;;;;5035453;28;20254;-87
2023/12/13 11:51:54;;;;;;;2.95;0.68;;;9.10;99.90;;;;;;5035006;28;20139;-87
2023/12/13 11:54:20;;;;;;;0.65;0.47;;;8.00;99.90;;;;;;5020015;28;20506;-87
2023/12/13 11:56:45;;;;;;;2.25;1.75;;;8.80;99.90;;;;;;5053618;28;20033;-87
2023/12/13 11:59:11;;;;;;;2.05;1.60;;;8.80;99.90;;;;;;5053639;28;20120;-87
2023/12/13 12:01:38;;;;;;;2.95;1.20;;;8.80;99.90;;;;;;5021506;28;20029;-87
2023/12/13 12:04:07;;;;;;;3.03;1.42;;;8.80;99.90;;;;;;5038255;28;20071;-87
2023/12/13 12:06:48;;;;;;;1.70;0.98;;;9.00;99.90;;;;;;5047712;28;20072;-89
2023/12/13 12:09:23;;;;;;;2.92;2.55;;;8.80;99.90;;;;;;5017564;28;20052;-88
2023/12/13 12:12:04;;;;;;;0.57;0.57;;;8.80;99.90;;;;;;5038240;28;20116;-87
2023/12/13 12:14:43;;;;;;;1.08;0.93;;;8.80;99.90;;;;;;5035906;28;20120;-88
2023/12/13 12:17:09;;;;;;;1.58;1.27;;;8.80;99.90;;;;;;5046106;28;20076;-88
2023/12/13 12:19:35;;;;;;;2.30;1.92;;;8.70;99.90;;;;;;5037626;28;20076;-87
2023/12/13 12:22:02;;;;;;;1.80;1.70;;;8.70;99.90;;;;;;5055628;28;20405;-88
2023/12/13 12:24:28;;;;;;;2.63;1.15;;;8.70;99.90;;;;;;5057680;28;20450;-87
2023/12/13 12:27:05;;;;;;;3.13;2.78;;;8.70;99.90;;;;;;5039265;28;20056;-88
2023/12/13 12:29:31;;;;;;;4.80;1.80;;;9.00;99.90;;;;;;5021127;28;20059;-87
2023/12/13 12:31:57;;;;;;;4.00;1.65;;;8.70;99.90;;;;;;5052698;28;20151;-87
2023/12/13 12:34:22;;;;;;;0.95;0.95;;;8.70;99.90;;;;;;5053521;28;20095;-88
2023/12/13 12:36:48;;;;;;;0.65;0.65;;;8.80;99.90;;;;;;5022969;28;20076;-87
2023/12/13 12:39:13;;;;;;;1.42;1.33;;;8.80;99.90;;;;;;5039550;28;20056;-87
2023/12/13 12:41:39;;;;;;;3.67;1.73;;;8.80;99.90;;;;;;5057870;28;20122;-87
2023/12/13 12:44:04;;;;;;;0.90;0.80;;;8.80;99.90;;;;;;5056794;28;20044;-87
2023/12/13 12:46:30;;;;;;;3.45;1.65;;;8.80;99.90;;;;;;5063674;28;20051;-87
2023/12/13 12:48:55;;;;;;;6.00;1.85;;;9.30;99.90;;;;;;5082354;28;20040;-88
2023/12/13 12:51:21;;;;;;;1.60;1.30;;;8.80;99.90;;;;;;5065221;28;20043;-88
2023/12/13 12:53:47;;;;;;;1.60;1.50;;;8.80;99.90;;;;;;5048237;28;20052;-87